Results by/Résultats par Info:[email protected] Phone: (613)723-0994

                                    K-TOWN TRIATHLON

                                Sunday August 6th, 2006

                         Confederation Park, Kingston, Ontario

                        Overall Results - Short Course Triathlon

  -----FINAL----- ----------------------- ------------ -------------------- ----           750m                         30km                   7.2km
                                                       Category                     ------SWIM + T1-------    ----------BIKE--------    -------RUN + T2-------- -------
    Pos     Time  Name                    City         Plc/Total Category     #      Cat  Ovr  Time  /100m     Cat Ovr Time  km/hr      Cat  Ovr  Time     km   Penalty
  ------  ------- ----------------------- ------------ -------------------- ----    ----------------------    ----------------------    ----------------------- -------
    1     1:22:59 David CLINKARD          Kingston       1/9   M20 - 24      465    1      1    9:36  1:17    1      1   47:46  37.7     1      3   25:37  3:34         
    2     1:23:54 Nick MCGRAW             Kingston       1/1   Elite Men     459    1      4   10:44  1:26    1      4   48:31  37.1     1      1   24:40  3:26         
    3     1:24:20 Ian DONALD              Ottawa         1/5   Junior Men    500    1      5   10:48  1:27    1      3   48:28  37.1     1      2   25:06  3:30         
    4     1:28:53 Alexander HINTON        Kingston       2/5   Junior Men    217    2      6   10:54  1:28    2     17   51:50  34.7     2      4   26:10  3:38         
    5     1:31:14 Larbi BENHABIB          Toronto        1/8   M25 - 29      410    2     13   12:49  1:43    1      2   47:48  37.7     1      9   30:38  4:16         
    6     1:32:17 Jim SCHRIEL             Kanata         1/18  M30 - 34      452    4     24   13:32  1:49    2     11   50:40  35.5     1      5   28:05  3:55         
    7     1:32:50 Bill DEE                Markham        1/24  M35 - 39      304    1     16   13:17  1:47    1      6   49:13  36.6     1      8   30:21  4:13         
    8     1:33:03 Dougal BALE             Kingston       2/18  M30 - 34      413    3     21   13:22  1:47    1     10   50:32  35.6     2      6   29:10  4:03         
    9     1:34:42 Lianne ARCHAMBAULT      Kingston       1/19  W35 - 39      255    1     11   12:18  1:39    1      5   49:12  36.6     1     35   33:13  4:37         
   10     1:35:36 Dorelle HINTON          Kingston       1/4   Junior Women  218    1      3   10:35  1:25    1     43   54:04  33.3     1     10   30:58  4:19         
   11     1:36:58 Jay CUYLITS             Montreal       3/18  M30 - 34      400    2     17   13:18  1:47    3     39   53:39  33.6     3      7   30:02  4:11         
   12     1:37:28 Chris CHOLEWA           Ottawa         2/9   M20 - 24      368    2     22   13:29  1:48    2      7   49:20  36.5     5     52   34:41  4:49         
   13     1:37:36 Paul BOSTON             Toronto        1/25  M40 - 44      425    7     42   14:30  1:56    1     15   51:38  34.9     1     16   31:29  4:23         
   14     1:38:01 Mike WEBER              Maple          4/18  M30 - 34      481    1      7   11:27  1:32    5     56   55:18  32.5     4     12   31:17  4:21         
   15     1:38:06 Jairo MUNOZ             Kingston       2/24  M35 - 39      296    4     49   14:36  1:57    2      8   49:28  36.4     9     42   34:03  4:44         
   16     1:38:29 Laurie ROSS             Battersea      1/15  W45 - 49      313    1     15   13:03  1:45    1     19   52:11  34.5     3     36   33:15  4:38         
   17     1:38:52 David PETERSON          Napanee        3/24  M35 - 39      329    3     26   13:34  1:49    9     36   53:32  33.6     3     17   31:47  4:25         
   18 CLY 1:39:38 Richard CADMAN          Battersea      1/21  M45 - 49      312    1     31   13:42  1:50    1     14   51:27  35.0     5     49   34:30  4:48         
   19     1:40:11 Mike ABRAHAM            Ottawa         4/24  M35 - 39      451    10   112   17:13  2:18    3     13   51:11  35.2     4     18   31:48  4:25         
   20     1:40:14 Greg ASPDEN             St Catharine   5/24  M35 - 39      467    2     23   13:30  1:48    12    52   54:53  32.8     5     19   31:52  4:26         
   21     1:40:18 Mitch FALLIS            Yarker         2/25  M40 - 44      205    8     48   14:35  1:57    3     25   52:41  34.2     3     32   33:02  4:36         
   22     1:40:53 Gary TRANMER            Kingston       1/10  M55 - 59      322    2     35   13:47  1:51    2     26   52:43  34.1     1     47   34:24  4:47         
   23     1:41:09 Cathy BODNOFF           Ottawa         2/15  W45 - 49      458    3     45   14:33  1:57    2     37   53:37  33.6     2     30   33:01  4:36         
   24     1:41:42 Margot HALL             Ottawa         1/14  W30 - 34      237    2     10   12:03  1:37    1     34   53:07  33.9     3     76   36:33  5:05         
   25     1:41:44 James MATHERS           Toronto        1/16  M50 - 54      286    6    115   17:16  2:19    2     21   52:20  34.4     1     20   32:08  4:28         
   26     1:41:56 Peter ELLIS             Kingston       2/21  M45 - 49      379    6     75   15:38  2:05    7     50   54:50  32.8     2     15   31:29  4:23         
   27     1:42:03 Mark FREDERICK          Kingston       2/16  M50 - 54      480    5    103   16:49  2:15    1     12   50:45  35.5     3     48   34:29  4:48         
   28     1:42:10 Carlos GONZALEZ         Ajax           3/21  M45 - 49      354    8     97   16:42  2:14    3     29   52:49  34.1     3     26   32:40  4:33         
   29     1:42:23 Amy KIRKHAM             Toronto        1/15  W20 - 24      449    4     54   14:55  2:00    1     74   56:26  31.9     1     11   31:03  4:19         
   30     1:42:36 Brian MACGILLIVRAY      Kingston       3/25  M40 - 44      242    5     32   13:43  1:50    5     49   54:46  32.9     4     43   34:07  4:45         
   31     1:42:55 Alison CHALMERS         Kingston       2/15  W20 - 24      497    1     12   12:21  1:39    2     93   58:20  30.9     2     23   32:15  4:29         
   32     1:42:58 Don COWIN               RR3 Bath       3/16  M50 - 54      202    1     25   13:33  1:49    4     65   56:03  32.1     2     37   33:23  4:39         
   33     1:43:04 John ST.MARSEILLE       Cornwall       4/21  M45 - 49      248    2     47   14:35  1:57    5     31   52:55  34.0     7     61   35:35  4:57         
   34     1:43:11 Andrew THEW             Belleville     6/24  M35 - 39      263    11   117   17:20  2:19    6     28   52:49  34.1     7     33   33:03  4:36         
   35     1:43:17 Claire MICHEL           Kingston       1/25  W25 - 29      463    1     20   13:22  1:47    1     22   52:22  34.4     8     92   37:34  5:13         
   36     1:43:30 Devin REYNOLDS          Kingston       3/9   M20 - 24      247    3     38   14:15  1:54    7     81   56:58  31.6     2     24   32:19  4:30         
   37     1:43:30 Daniel COWNDEN          Kingston       4/9   M20 - 24      334    8    205   20:02  2:41    3      9   50:27  35.7     3     31   33:02  4:36         
   38     1:43:33 Denis MOORE             Napanee        5/21  M45 - 49      245    7     95   16:37  2:13    4     30   52:50  34.1     4     44   34:07  4:45         
   39 CLY 1:43:33 Daun LYNCH              Kingston       2/25  W25 - 29      430    4     59   15:11  2:02    2     70   56:12  32.0     2     22   32:11  4:29         
   40 CLY 1:43:36 Jeff MUSSON             Trenton        4/25  M40 - 44      498    2     18   13:21  1:47    2     16   51:43  34.8     11   111   38:33  5:22         
   41     1:43:51 Al GARRAH               Kingston       5/25  M40 - 44      365    4     30   13:40  1:50    6     54   54:59  32.7     5     58   35:13  4:54         
   42     1:43:52 Scott SHARPE            Kingston       7/24  M35 - 39      315    7     87   16:15  2:10    11    51   54:51  32.8     6     29   32:48  4:34         
   43     1:44:12 Sidney RAPS             Courtice       6/21  M45 - 49      417    9    101   16:47  2:15    8     63   56:00  32.1     1     14   31:26  4:22         
   44     1:44:19 Ian MOORE               Kingston       5/18  M30 - 34      401    5     33   13:45  1:50    11    92   58:16  30.9     5     25   32:19  4:30         
   45     1:44:35 Rob SEELEY              Calgary        4/16  M50 - 54      306    4     88   16:17  2:11    3     23   52:28  34.3     4     64   35:51  4:59         
   46     1:44:41 Sheldon COOK            Inverary       8/24  M35 - 39      390    8     93   16:25  2:12    17    82   56:58  31.6     2     13   31:18  4:21         
   47     1:45:12 Morgan MACDONALD        Kingston       2/8   M25 - 29      466    4     74   15:37  2:05    2     44   54:11  33.2     4     60   35:25  4:56         
   48     1:45:21 Agathe NICHOLSON        Perth Road     3/15  W45 - 49      482    2     36   13:49  1:51    4    103   58:50  30.6     1     27   32:43  4:33         
   49     1:45:58 Kevin PILLING           Brockville     6/18  M30 - 34      265    8     52   14:41  1:58    10    79   56:55  31.6     6     46   34:23  4:47         
   50     1:46:01 Daryl NAUMAN            Kingston       3/8   M25 - 29      343    6    157   18:25  2:28    3     45   54:26  33.1     2     34   33:12  4:37         
   51     1:46:02 Dave ROBERTSON          Kingston       9/24  M35 - 39      469    5     56   15:02  2:01    14    55   55:12  32.6     11    63   35:49  4:59         
   52     1:46:07 Keempee STEIN           Kingston       3/5   Junior Men    439    3     50   14:37  1:57    3     91   58:02  31.0     3     38   33:29  4:39         
   53     1:46:28 Shannon HILL            Kingston       2/19  W35 - 39      366    2     39   14:22  1:55    2     85   57:22  31.4     3     53   34:45  4:50         
   54     1:46:37 David STOCKS            Kingston       7/21  M45 - 49      240    11   118   17:21  2:19    2     27   52:43  34.1     8     77   36:33  5:05         
   55     1:47:04 Jason CHARTIER          Burlington     7/18  M30 - 34      224    6     43   14:31  1:57    4     46   54:28  33.0     10   100   38:06  5:18         
   56     1:47:08 Stefan HLOUSCHKO        Kingston       5/9   M20 - 24      405    6    120   17:26  2:20    4     48   54:44  32.9     6     54   34:59  4:52         
   57     1:47:13 Anne MYERS              Toronto        3/25  W25 - 29      270    8     76   15:40  2:06    6    114   59:24  30.3     1     21   32:10  4:29         
   58     1:47:16 Peter HOAKEN            London        10/24  M35 - 39      486    19   185   19:14  2:34    8     33   52:59  34.0     10    55   35:04  4:53         
   59     1:47:30 Young ROBERT            Kingston       4/8   M25 - 29      416    3     55   15:00  2:00    5     69   56:10  32.0     5     70   36:21  5:03         
   60     1:47:37 Scott VOWLES            Kingston       8/18  M30 - 34      281    7     46   14:34  1:57    9     75   56:27  31.9     9     78   36:37  5:06         
   61     1:47:38 Shawn LEROUX            Montreal       5/8   M25 - 29      348    5    130   17:36  2:21    4     66   56:06  32.1     3     40   33:56  4:43         
   62     1:47:38 Chris CHARD             Glenburnie    11/24  M35 - 39      216    9    100   16:46  2:15    13    53   54:55  32.8     12    67   35:59  5:00         
   63     1:47:49 Linda MARTIN            Kanata         1/11  W40 - 44      252    2     69   15:30  2:04    1     59   55:40  32.3     2     80   36:40  5:06         
   64     1:48:12 Terry OBRIEN            Kingston       2/10  M55 - 59      402    1     14   12:50  1:43    5     68   56:07  32.1     3    125   39:15  5:28         
   65     1:48:18 Stephen OIKAWA          Kingston      12/24  M35 - 39      426    16   161   18:34  2:29    7     32   52:58  34.0     15    82   36:46  5:07         
   66     1:48:38 Emily SINCLAIR          Kingston       2/14  W30 - 34      342    3     27   13:36  1:49    5    110   59:09  30.4     1     65   35:54  5:00         
   67     1:48:42 Graham COLLINS          Kingston       9/18  M30 - 34      299    13   164   18:41  2:30    6     57   55:23  32.5     7     51   34:39  4:49         
   68     1:48:45 Bryan SARAKA            Kingston      13/24  M35 - 39      356    6     79   15:44  2:06    5     24   52:30  34.3     18   146   40:32  5:38         
   69     1:48:58 Chris HENRY             Kingston       6/9   M20 - 24      283    4     85   16:14  2:10    6     72   56:23  31.9     7     71   36:22  5:04         
   70     1:49:58 Mark ROBERTSON          Burlington    14/24  M35 - 39      397    13   129   17:36  2:21    19    99   58:39  30.7     8     39   33:45  4:42         
   71     1:50:01 Ingrid MARCHAND         Montreal       3/19  W35 - 39      360    8    148   18:04  2:25    3     90   58:01  31.0     2     41   33:56  4:43         
   72     1:50:02 Michael BURLEIGH        Montreal      15/24  M35 - 39      323    18   176   19:01  2:33    10    47   54:35  33.0     13    74   36:27  5:04         
   73     1:50:04 Mark BORG               Whitby        16/24  M35 - 39      491    14   133   17:39  2:22    15    61   55:46  32.3     14    79   36:39  5:06         
   74     1:50:07 Mike BROEKHOVEN         Kingston       6/25  M40 - 44      200    10    78   15:43  2:06    4     40   53:40  33.5     19   150   40:45  5:40         
   75     1:50:08 Rick HUNT               Kingston       8/21  M45 - 49      253    10   114   17:15  2:18    6     35   53:11  33.8     10   130   39:43  5:31         
   76     1:50:13 Kelly CRANSTON          Banff          3/14  W30 - 34      204    5     60   15:13  2:02    2     41   53:52  33.4     8    161   41:08  5:43         
   77     1:50:15 Rob MCPHEE              Edmonton       3/10  M55 - 59      330    3     51   14:38  1:58    6     98   58:31  30.8     2     85   37:07  5:10         
   78     1:50:41 Dale ENGEN              Kingston       7/25  M40 - 44      268    13   122   17:29  2:20    14   134 1:00:27  29.8     2     28   32:46  4:34         
   79 CLY 1:51:05 Lance MARTEL            Toronto       10/18  M30 - 34      415    9     92   16:24  2:12    8     67   56:07  32.1     13   112   38:35  5:22         
   80     1:51:05 Andre WISTAFF           Kingston       8/25  M40 - 44      477    3     29   13:38  1:50    13   118   59:37  30.2     9     96   37:51  5:16         
   81     1:51:12 Angela BROWN            Mississauga    4/14  W30 - 34      370    1      8   11:57  1:36    6    150 1:01:37  29.2     4     94   37:38  5:14         
   82     1:51:22 G. Ross WALKER          Glenburnie     5/16  M50 - 54      320    2     28   13:36  1:49    10   145 1:01:15  29.4     6     75   36:32  5:05         
   83     1:51:36 Tegan UPJOHN            Kingston       4/25  W25 - 29      389    3     53   14:50  1:59    3     89   57:56  31.1     10   117   38:51  5:24         
   84     1:51:37 Christine CUYLITS       Toronto        5/14  W30 - 34      394    8     99   16:45  2:14    3    100   58:39  30.7     2     69   36:14  5:02         
   85     1:51:57 Brian BECK              Kingston       9/25  M40 - 44      433    14   125   17:33  2:21    7     58   55:32  32.4     13   118   38:53  5:24         
   86     1:52:06 Liam MCCREADY           Carleton Pla  11/18  M30 - 34      427    12   151   18:11  2:26    7     60   55:45  32.3     11   105   38:10  5:19         
   87     1:52:11 Seumas WOODS            Toronto        9/21  M45 - 49      445    4     68   15:29  2:04    9     73   56:26  31.9     11   140   40:16  5:36         
   88     1:52:12 Colleen CURTIS          Kingston       5/25  W25 - 29      303    5     62   15:14  2:02    7    123   59:47  30.1     5     86   37:12  5:10         
   89     1:52:25 Natalie AVILES          Toronto        3/15  W20 - 24      361    3     37   13:50  1:51    9    167 1:02:39  28.7     3     66   35:57  5:00         
   90     1:52:26 Andres PUGI             Mississauga   10/25  M40 - 44      298    12    98   16:43  2:14    8     76   56:32  31.8     14   122   39:12  5:27         
   91 CLY 1:52:29 Marco ALESSIO           Elora         11/25  M40 - 44      324    16   139   17:47  2:23    9     84   57:12  31.5     8     90   37:30  5:13         
   92 CLY 1:52:35 Jay C. JAMES            Napanee       17/24  M35 - 39      424    20   187   19:15  2:34    4     18   51:52  34.7     20   166   41:29  5:46         
   93     1:52:44 Geoff DEIR              Gananoque     18/24  M35 - 39      206    12   126   17:33  2:21    16    64   56:00  32.1     17   123   39:12  5:27         
   94     1:52:49 Glen REMPEL             Kanata        12/25  M40 - 44      331    17   144   17:56  2:24    12   117   59:32  30.2     6     59   35:22  4:55         
   95     1:52:58 Brendan FLOWERS         Kingston       7/9   M20 - 24      395    7    181   19:08  2:34    5     71   56:15  32.0     8     93   37:36  5:14         
   96     1:53:06 Rachael MORKEM          Bath           4/15  W20 - 24      396    9    108   17:01  2:17    3    119   59:40  30.2     4     73   36:26  5:04         
   97     1:53:06 Abigail MORKEM          Kingston       5/15  W20 - 24      432    5     57   15:07  2:01    4    121   59:44  30.1     10   107   38:15  5:19         
   98     1:53:15 Rick THOMPSON           Almonte       10/21  M45 - 49      468    13   128   17:35  2:21    10    77   56:38  31.8     9    119   39:02  5:26         
   99     1:53:30 Holly MORRISON          Kingston       6/25  W25 - 29      392    16   173   18:54  2:32    4     94   58:22  30.8     3     68   36:14  5:02         
  100     1:53:36 Dwight MCDOUGALL        Kanata         4/10  M55 - 59      505    4    105   16:58  2:16    1     20   52:18  34.4     9    197   44:20  6:10         
  101     1:53:47 Don BAYNE               Ottawa         1/6   M60 - 64      381    1    165   18:42  2:30    1     42   54:02  33.3     2    158   41:04  5:43         
  102     1:54:07 Greg KERR               Tweed          5/10  M55 - 59      243    6    137   17:43  2:22    3     38   53:39  33.6     6    182   42:46  5:57         
  103     1:54:10 Dave GROSS              Kingston       6/16  M50 - 54      507    7    116   17:18  2:19    7    102   58:45  30.6     8    102   38:08  5:18         
  104     1:54:10 Doug RONSON             Kingston      11/21  M45 - 49      222    17   223   21:12  2:50    15    96   58:26  30.8     6     50   34:34  4:48         
  105     1:54:19 Doug LAUGHTON           Ottawa        13/25  M40 - 44      307    9     58   15:09  2:02    11   115   59:25  30.3     17   131   39:46  5:32         
  106 CLY 1:54:47 Shan JHAMANDAS          Kingston      12/18  M30 - 34      285    15   192   19:18  2:35    12   120   59:41  30.2     8     62   35:49  4:59         
  107     1:55:02 Scott G SPENCER         Seeleys Bay   12/21  M45 - 49      332    3     65   15:26  2:04    17   112   59:19  30.3     12   142   40:19  5:36         
  108     1:55:28 Ken MACDONALD           Toronto       14/25  M40 - 44      429    15   127   17:34  2:21    16   136 1:00:39  29.7     7     87   37:17  5:11         
  109     1:55:29 Miriam LYON             Kingston       6/15  W20 - 24      367    6     63   15:19  2:03    8    159 1:02:01  29.0     8    104   38:10  5:19         
  110     1:55:36 Laurent GODIN           Kingston      19/24  M35 - 39      229    23   221   20:55  2:48    18    88   57:41  31.2     16    83   37:02  5:09         
  111     1:55:47 Amy HURFORD             Kingston       7/25  W25 - 29      335    23   217   20:40  2:46    5     97   58:28  30.8     4     81   36:41  5:06         
  112     1:55:50 Jim KEECH               Bath           7/16  M50 - 54      233    8    121   17:28  2:20    11   157 1:02:00  29.0     5     72   36:23  5:04         
  113     1:55:52 Cliff MOUNTAIN          Yarker        13/21  M45 - 49      294    12   123   17:30  2:20    13    86   57:27  31.3     13   154   40:56  5:42         
  114     1:55:58 Brett LOCKERBIE         Kingston       8/16  M50 - 54      215    10   147   18:04  2:25    5     78   56:51  31.7     11   157   41:04  5:43         
  115     1:55:59 Casey HOWLETT           Kingston       7/15  W20 - 24      377    8     89   16:18  2:11    7    154 1:01:47  29.1     6     98   37:55  5:16         
  116     1:56:03 Jill SCOTT              Kingston       4/19  W35 - 39      404    12   159   18:29  2:28    4    104   58:52  30.6     5    113   38:42  5:23         
  117     1:56:14 Allison L M BROWN       Kingston       8/15  W20 - 24      456    12   149   18:06  2:25    5    127 1:00:01  30.0     7    103   38:09  5:18         
  118     1:56:22 Peter AUCHINCLOSS       Kingston      15/25  M40 - 44      496    6     34   13:46  1:51    20   174 1:03:23  28.4     15   124   39:14  5:27         
  119     1:56:26 Catharine CLARKE        Mountain       5/19  W35 - 39      495    3     66   15:27  2:04    6    143 1:01:10  29.4     8    133   39:50  5:32         
  120     1:56:31 Andrew HALL             Kingston      14/21  M45 - 49      346    14   162   18:37  2:29    11    80   56:57  31.6     14   156   40:58  5:42         
  121     1:56:41 Austin MACMURDO         Oshawa         6/10  M55 - 59      506    5    106   16:58  2:16    4     62   55:54  32.2     7    193   43:50  6:06         
  122     1:56:44 Julie STEWART           Toronto        2/11  W40 - 44      472    7    124   17:30  2:20    4    152 1:01:43  29.2     3     91   37:32  5:13         
  123     1:56:48 Lynn NOONAN             Foxboro        4/15  W45 - 49      308    6    138   17:44  2:22    3    101   58:39  30.7     5    144   40:26  5:37         
  124     1:56:59 Trevor RAPS             Courtice       8/9   M20 - 24      418    5     91   16:20  2:11    8    140 1:01:00  29.5     9    129   39:41  5:31         
  125     1:57:15 Kelly LYNCH             North Bay      9/15  W20 - 24      484    14   196   19:32  2:37    6    128 1:00:01  30.0     5     95   37:42  5:15         
  126     1:57:18 Kelly ROBERTSON         Dunrobin       3/11  W40 - 44      345    5     94   16:30  2:12    8    202 1:05:42  27.4     1     56   35:06  4:53         
  127     1:57:28 Rob RENAUD              Yarker         9/16  M50 - 54      203    3     80   15:47  2:07    8    124   59:48  30.1     12   170   41:54  5:50         
  128     1:57:34 Elizabeth GARCIA        Brockville     6/19  W35 - 39      238    11   155   18:19  2:27    7    147 1:01:24  29.3     4     97   37:52  5:16         
  129     1:57:35 Nancy BRENNAN           Kingston       1/6   W55 - 59      232    1     96   16:38  2:14    2    142 1:01:04  29.5     2    136   39:53  5:33         
  130 CLY 1:57:46 Michael DAVIDSON        Ottawa        13/18  M30 - 34      453    14   183   19:09  2:34    13   130 1:00:10  29.9     12   109   38:28  5:21         
  131     1:57:59 Bev WHITEN              Kingston       4/11  W40 - 44      474    8    136   17:41  2:22    5    162 1:02:13  28.9     4    101   38:06  5:18         
  132     1:58:04 Scott MORRISON          Kingston      16/25  M40 - 44      254    20   175   18:57  2:32    17   141 1:01:02  29.5     10    99   38:05  5:18         
  133     1:58:05 Deb THOMPSON            Kingston       5/11  W40 - 44      266    3     77   15:41  2:06    6    179 1:03:53  28.2     5    110   38:32  5:22         
  134     1:58:15 Jessica KAMPS           Ottawa         8/25  W25 - 29      369    2     41   14:29  1:56    14   197 1:05:21  27.5     9    108   38:26  5:21         
  135     1:58:30 Heather MACDONALD       Inverary       6/11  W40 - 44      209    6    104   16:57  2:16    3    149 1:01:35  29.2     6    138   39:58  5:34         
  136     1:58:41 Shirley MYERS           Kingston       2/6   W55 - 59      210    4    215   20:29  2:44    3    170 1:03:01  28.6     1     57   35:12  4:54         
  137     1:58:48 Richard CAMERON         Kingston      10/16  M50 - 54      362    11   180   19:08  2:33    9    139 1:00:56  29.5     9    115   38:45  5:23         
  138     1:58:50 Diane HARPER            Brighton       5/15  W45 - 49      383    4     82   15:53  2:08    8    161 1:02:07  29.0     8    153   40:51  5:41         
  139     1:59:07 Kim MCCLURE             Toronto        6/15  W45 - 49      446    5    111   17:12  2:18    7    158 1:02:00  29.0     4    137   39:55  5:33         
  140     1:59:18 Frank LUSCHER           Newcastle     15/21  M45 - 49      344    15   166   18:43  2:30    12    83   57:03  31.6     16   189   43:33  6:03         
  141     1:59:23 Kelly FOYLE             Kingston       9/25  W25 - 29      310    10   107   17:00  2:16    12   171 1:03:12  28.5     11   121   39:12  5:27         
  142     1:59:28 William GRANCHE         Ridgway        7/10  M55 - 59      275    8    202   19:57  2:40    8    129 1:00:06  30.0     4    126   39:27  5:29         
  143     1:59:36 Grazia SCOPPIO          Kingston       7/15  W45 - 49      338    8    172   18:53  2:31    5    132 1:00:16  29.9     6    145   40:28  5:38         
  144     1:59:38 Jean PAQUIN             Inverary       6/14  W30 - 34      398    7     72   15:36  2:05    7    169 1:02:57  28.6     7    159   41:06  5:43         
  145     1:59:48 Peter KINGSTON          Kingston      11/16  M50 - 54      259    13   231   21:38  2:53    6     95   58:25  30.8     10   132   39:46  5:32         
  146     2:00:00 Stacy JOWETT            Seeleys bay   10/25  W25 - 29      457    12   156   18:22  2:27    9    131 1:00:11  29.9     17   165   41:27  5:46         
  147     2:00:32 Scott CLANCY            Kingston      17/25  M40 - 44      227    21   200   19:49  2:39    18   156 1:02:00  29.0     12   114   38:44  5:23         
  148     2:00:59 Nancy OVERINGTON        Kingston       3/6   W55 - 59      347    2    119   17:26  2:20    1    108   59:04  30.5     4    199   44:29  6:11         
  149     2:00:59 Ian LEWIS               Kingston       9/9   M20 - 24      436    9    238   22:00  2:56    9    189 1:04:45  27.8     4     45   34:14  4:46         
  150     2:01:03 Dan DEMEDEIROS          Richmond      14/18  M30 - 34      423    11   135   17:41  2:22    15   148 1:01:28  29.3     16   172   41:56  5:50         
  151     2:01:09 Diane URIE              Kingston       7/19  W35 - 39      297    4     70   15:32  2:05    9    178 1:03:49  28.2     10   168   41:48  5:49         
  152     2:01:21 John DANCE              Ottawa         8/10  M55 - 59      208    7    153   18:13  2:26    10   166 1:02:29  28.8     5    149   40:39  5:39         
  153     2:01:25 Heather MURRAY          Kingston       7/11  W40 - 44      241    1     67   15:29  2:04    2    125   59:50  30.1     8    212   46:07  6:25         
  154     2:01:30 Michael RADECKE         Williamsvill  18/25  M40 - 44      352    11    90   16:19  2:11    22   198 1:05:23  27.5     18   134   39:50  5:32         
  155     2:01:31 Joan LACOURSIERE        Kingston       8/11  W40 - 44      422    4     81   15:51  2:07    7    199 1:05:25  27.5     7    141   40:16  5:36         
  156     2:01:37 Siobhan KELLY           Kingston       8/19  W35 - 39      357    10   154   18:17  2:27    5    122   59:46  30.1     15   190   43:35  6:04         
  157     2:01:53 Paula JARVIS            Kingston      11/25  W25 - 29      328    6     64   15:24  2:04    15   203 1:05:51  27.3     14   148   40:38  5:39         
  158     2:01:54 Katie SAX               Mississauga   10/15  W20 - 24      359    2     19   13:21  1:47    13   207 1:06:26  27.1     12   175   42:08  5:52         
  159     2:01:55 Terry HALEY             Yarker        19/25  M40 - 44      213    22   225   21:20  2:51    10   113   59:24  30.3     20   163   41:12  5:44         
  160     2:02:07 Beth BRUCE              Kingston       9/19  W35 - 39      260    5    110   17:10  2:18    12   200 1:05:30  27.5     7    127   39:29  5:29         
  161     2:02:13 Vicki WISEMAN           Ottawa        12/25  W25 - 29      274    25   242   22:24  3:00    8    126   59:58  30.0     12   135   39:52  5:33         
  162     2:02:16 Vince RAMSAY            Inverary      12/16  M50 - 54      403    9    142   17:50  2:23    13   219 1:07:25  26.7     7     84   37:02  5:09         
  163     2:02:20 Maureen WHITE           Kingston      11/15  W20 - 24      226    13   169   18:50  2:31    12   195 1:05:18  27.6     9    106   38:13  5:19         
  164     2:02:49 Sean WONG               Vernon        20/24  M35 - 39      250    17   168   18:49  2:31    20   168 1:02:40  28.7     19   164   41:22  5:45         
  165     2:03:05 Sharilyn ROUD           Kingston      12/15  W20 - 24      412    11   140   17:49  2:23    10   172 1:03:17  28.4     11   173   42:00  5:50         
  166     2:03:10 Brenda SAALTINK         Cornwall       1/10  W50 - 54      450    2    102   16:47  2:15    2    182 1:04:15  28.0     1    176   42:09  5:52         
  167     2:03:11 Jessica KETCHESON       Kingston      13/25  W25 - 29      489    15   171   18:52  2:31    19   216 1:07:03  26.8     6     88   37:17  5:11         
  168     2:03:24 Kim MCFARLANE           Kingston      10/19  W35 - 39      493    7    145   17:57  2:24    10   185 1:04:30  27.9     9    155   40:58  5:42         
  169     2:03:26 Richard WARD            Kingston      16/21  M45 - 49      305    16   213   20:26  2:44    16   106   59:00  30.5     17   194   44:01  6:07         
  170     2:03:52 John HALL               Kingston       9/10  M55 - 59      291    9    216   20:33  2:45    7    107   59:04  30.5     8    196   44:16  6:09         
  171     2:03:55 Joan TRANMER            Kingston       2/10  W50 - 54      438    1     86   16:14  2:10    1    105   58:58  30.5     7    235   48:43  6:46         
  172     2:04:02 Antonino RIZZO          Toronto        6/8   M25 - 29      393    7    179   19:07  2:33    7    144 1:01:13  29.4     6    191   43:44  6:05         
  173     2:04:26 Erin MARCHINGTON        Toronto       14/25  W25 - 29      262    9     84   15:59  2:08    13   194 1:05:10  27.6     20   186   43:17  6:01         
  174     2:04:36 Robert BUDGELL          St. Catharin  20/25  M40 - 44      325    23   244   22:40  3:02    19   165 1:02:25  28.8     16   128   39:32  5:30         
  175     2:04:38 Karen JUTZI             North York     7/14  W30 - 34      349    13   237   21:59  2:56    4    109   59:07  30.4     11   188   43:33  6:03         
  176     2:04:40 Sherri SCHMIDT STUTZMAN Kingston      15/25  W25 - 29      384    11   113   17:13  2:18    16   206 1:06:18  27.1     16   162   41:10  5:43         
  177     2:04:50 Lindsay CAMPBELL        Kingston      16/25  W25 - 29      471    13   158   18:26  2:28    11   155 1:01:54  29.1     21   201   44:31  6:11         
  178     2:04:54 Jim FOSTER              Kingston      17/21  M45 - 49      292    19   246   22:47  3:03    14    87   57:38  31.2     18   200   44:30  6:11         
  179     2:05:20 Andrea WOOGH            Sydenham       8/14  W30 - 34      488    10   184   19:14  2:34    10   204 1:05:56  27.3     6    139   40:12  5:35         
  180     2:05:21 Lindsay REID            Kingston      17/25  W25 - 29      454    18   182   19:09  2:34    21   229 1:08:55  26.1     7     89   37:19  5:11         
  181     2:05:23 Megan VOWLES            Kingston       9/14  W30 - 34      295    4     40   14:28  1:56    11   214 1:06:53  26.9     12   195   44:03  6:07         
  182     2:05:29 Cindy COWIN             RR3 Bath       8/15  W45 - 49      201    9    177   19:03  2:33    10   201 1:05:38  27.4     7    152   40:50  5:41         
  183     2:05:56 Brodie MCDONELL         Kanata        15/18  M30 - 34      230    16   224   21:18  2:51    16   176 1:03:32  28.3     14   160   41:06  5:43         
  184     2:06:01 Angela FRASER           Kingston      10/14  W30 - 34      475    11   186   19:15  2:34    9    188 1:04:44  27.8     9    174   42:03  5:51         
  185     2:06:21 Kristina GARDNER        Ottawa        18/25  W25 - 29      318    17   178   19:05  2:33    18   213 1:06:51  26.9     13   143   40:26  5:37         
  186     2:06:39 David ANDREW            Kingston      10/10  M55 - 59      414    10   218   20:40  2:46    9    137 1:00:45  29.6     10   209   45:14  6:17         
  187     2:06:43 Josey STEEL             Inverary      11/19  W35 - 39      391    14   189   19:16  2:35    15   225 1:08:23  26.3     6    120   39:06  5:26         
  188     2:06:48 Mel THERIEN             Harrowsmith    2/6   M60 - 64      272    3    197   19:35  2:37    6    209 1:06:37  27.0     1    147   40:37  5:39         
  189     2:06:51 Anita MCKEE             Ottawa        11/14  W30 - 34      234    9    132   17:38  2:22    8    184 1:04:28  27.9     13   204   44:46  6:14         
  190     2:07:09 Nathalie ROSS           Mississauga   12/19  W35 - 39      479    15   191   19:18  2:35    11   193 1:05:10  27.6     12   179   42:42  5:56         
  191     2:07:27 Ted BRANSCOMBE          Kingston       7/8   M25 - 29      428    8    236   21:52  2:55    6    116   59:29  30.3     7    213   46:07  6:25         
  192     2:07:28 Patti MCCAULEY          Kingston       9/15  W45 - 49      300    12   212   20:21  2:43    6    133 1:00:19  29.8     10   216   46:49  6:31         
  193     2:07:58 Heidi LAUCKNER          Kingston      13/19  W35 - 39      442    9    152   18:12  2:26    8    173 1:03:17  28.4     17   215   46:29  6:28         
  194     2:08:18 Sharon KLASSEN          Kingston      10/15  W45 - 49      444    7    141   17:49  2:23    13   228 1:08:54  26.1     9    167   41:36  5:47         
  195     2:08:31 Lucienne DICKINSON      Kingston       4/6   W55 - 59      470    6    239   22:13  2:58    4    177 1:03:33  28.3     3    181   42:46  5:57         
  196     2:08:56 Geoff FLYNN             Bath           1/1   M70 & Over    264    1    150   18:07  2:25    1    164 1:02:25  28.8     1    228   48:25  6:44         
  197     2:09:06 Fiona MCDONELL          Kanata        12/14  W30 - 34      301    12   190   19:17  2:35    13   237 1:11:03  25.3     5    116   38:46  5:24         
  198     2:09:21 Jeanne SCHRIEL          Nepean        19/25  W25 - 29      421    7     71   15:34  2:05    17   208 1:06:28  27.1     24   220   47:19  6:35         
  199     2:09:23 John COLLINS            Oshawa         3/6   M60 - 64      317    6    260   25:24  3:24    2    111   59:13  30.4     3    205   44:47  6:14         
  200     2:09:45 Shannon BURWASH         Whitby        14/19  W35 - 39      492    6    134   17:40  2:22    13   215 1:06:54  26.9     16   208   45:12  6:17         
  201     2:09:51 John CLINKARD           Toronto        4/6   M60 - 64      485    4    214   20:28  2:44    5    163 1:02:25  28.8     4    218   46:59  6:32         
  202     2:10:15 Marlene VILLENEUVE      Kingston      20/25  W25 - 29      321    20   193   19:20  2:35    10   151 1:01:42  29.2     25   237   49:14  6:51         
  203     2:10:17 Brian FLYNN             Kingston      21/25  M40 - 44      256    19   174   18:54  2:32    15   135 1:00:34  29.7     24   245   50:50  7:04         
  204     2:10:36 Shawn LA PLANTE         Bath          21/24  M35 - 39      289    24   240   22:18  2:59    21   180 1:03:55  28.2     22   198   44:23  6:10         
  205     2:10:50 Brian MCDONALD          Kingston      18/21  M45 - 49      337    5     73   15:36  2:05    19   187 1:04:36  27.9     20   244   50:39  7:02         
  206     2:10:51 Peter PURVIS            Guelph        19/21  M45 - 49      282                                                         21                             
  207     2:10:58 Paul J. MCANENEY        Toronto        1/2   M65 - 69      487    1    222   21:00  2:48    1    146 1:01:16  29.4     2    233   48:42  6:46         
  208     2:11:02 Lawrence RULISON        Delmar        22/24  M35 - 39      293    21   204   20:00  2:40    24   224 1:08:18  26.4     21   180   42:45  5:57         
  209 CLY 2:11:11 Kelcy DEPOOTER          Kingston      21/25  W25 - 29      408    14   160   18:30  2:28    20   220 1:08:06  26.4     22   203   44:36  6:12         
  210     2:11:17 John DEANS              Toronto        5/6   M60 - 64      494    5    233   21:42  2:54    3    153 1:01:45  29.1     5    226   47:51  6:39         
  211     2:11:20 Tim GORDANIER           Amherstview   20/21  M45 - 49      284    18   228   21:35  2:53    20   205 1:06:17  27.2     15   187   43:29  6:03         
  212     2:11:37 Kim GRIMARD             Kingston       2/4   Junior Women  212    2     44   14:32  1:57    2    226 1:08:26  26.3     3    232   48:41  6:46         
  213     2:11:37 Lorry GRIMARD           Kingston      13/15  W20 - 24      214    10   109   17:08  2:18    11   175 1:03:26  28.4     15   248   51:04  7:06         
  214     2:11:39 Jody SKINNER            Ottawa        15/19  W35 - 39      267    17   201   19:52  2:39    16   227 1:08:48  26.2     13   184   43:00  5:59         
  215     2:12:09 Cathy DAVISON           Seeleys bay   11/15  W45 - 49      350    10   199   19:45  2:38    9    191 1:04:58  27.7     11   222   47:27  6:36         
  216     2:12:18 Irv FRANCIS             Cornwall       6/6   M60 - 64      333    2    194   19:21  2:35    4    160 1:02:03  29.0     6    246   50:55  7:05         
  217 CLY 2:12:18 Mike PORTER             Kingston      22/25  M40 - 44      502    24   250   22:58  3:04    21   190 1:04:46  27.8     21   202   44:35  6:12         
  218     2:12:59 Alison KABAROFF         Kingston      22/25  W25 - 29      473    19   188   19:16  2:35    25   249 1:12:54  24.7     15   151   40:50  5:41         
  219     2:13:05 Laura MILSOM            Ottawa        13/14  W30 - 34      371    6     61   15:14  2:02    12   222 1:08:09  26.4     14   239   49:43  6:55         
  220     2:13:31 Bruce PATRY             Kingston      23/24  M35 - 39      309    15   146   18:02  2:25    22   181 1:03:59  28.1     23   249   51:31  7:10         
  221     2:13:39 Laurie LOCKERBIE        Kingston       3/10  W50 - 54      220    6    227   21:26  2:52    3    192 1:05:10  27.6     3    219   47:04  6:33         
  222     2:13:55 Katherine GARDNER       Ottawa        23/25  W25 - 29      327    22   203   20:00  2:40    22   245 1:12:05  25.0     18   169   41:51  5:49         
  223     2:13:59 Alix CARR-HARRIS        Kingston      16/19  W35 - 39      302    19   258   24:32  3:17    14   218 1:07:18  26.7     11   177   42:11  5:52         
  224 CLY 2:14:07 Ian SEMPOWSKI           Kingston      23/25  M40 - 44      221    18   163   18:39  2:30    23   211 1:06:46  27.0     23   234   48:43  6:46         
  225     2:14:35 Helen PETERSON          Kingston       4/10  W50 - 54      406    3    143   17:51  2:23    5    231 1:09:20  26.0     4    221   47:25  6:36         
  226     2:14:36 Jesse BLONDIN           Ottawa        24/25  W25 - 29      431    21   198   19:35  2:37    23   246 1:12:15  24.9     19   183   42:47  5:57         
  227     2:14:49 Nathalie CHARETTE       Beaconsfield  17/19  W35 - 39      499    13   167   18:48  2:31    18   248 1:12:47  24.7     14   185   43:15  6:01         
  228     2:14:59 Mary Jane PHILLIPS      Kingston       5/10  W50 - 54      399    5    219   20:43  2:46    4    212 1:06:49  26.9     5    223   47:28  6:36         
  229     2:15:03 Adam ABLEMAN            Toronto       16/18  M30 - 34      314    17   232   21:40  2:54    17   240 1:11:29  25.2     15   171   41:55  5:50         
  230     2:15:04 Katy KEYES              Toronto       14/15  W20 - 24      503    7     83   15:58  2:08    14   232 1:09:54  25.8     14   236   49:13  6:51         
  231     2:15:49 Miranda KEYES           Toronto       15/15  W20 - 24      504    15   206   20:03  2:41    15   233 1:09:55  25.7     13   211   45:52  6:23         
  232     2:16:20 Anne GRAHAM             Kingston      14/14  W30 - 34      411    14   243   22:38  3:02    14   238 1:11:24  25.2     10   178   42:19  5:53         
  233     2:16:22 Bradshaw SHERIDAN       Erin          13/16  M50 - 54      378    14   234   21:43  2:54    14   236 1:10:50  25.4     13   192   43:49  6:06         
  234     2:16:37 Todd PEARSON            Kingston      14/16  M50 - 54      483    12   208   20:15  2:42    12   196 1:05:20  27.6     15   247   51:03  7:06         
  235     2:17:55 Sheila KINGSTON         Kingston       6/10  W50 - 54      258    8    251   23:05  3:05    6    234 1:09:59  25.7     2    207   44:52  6:14         
  236 CLY 2:18:17 Charlie POPOVIC         Kingston      24/24  M35 - 39      257    22   210   20:17  2:43    23   186 1:04:35  27.9     24   255   53:25  7:26         
  237     2:19:56 Linda BETHUNE           Kingston      12/15  W45 - 49      223    15   241   22:22  2:59    11   217 1:07:14  26.8     13   243   50:21  7:00         
  238     2:20:15 Chris ROBERTS           Kingston      21/21  M45 - 49      455    20   263   28:56  3:52    18   183 1:04:24  28.0     19   217   46:56  6:32         
  239     2:20:17 Danielle ABLEMAN        Toronto       25/25  W25 - 29      319    24   230   21:38  2:53    24   247 1:12:33  24.8     23   214   46:07  6:25         
  240     2:20:47 Jennifer BROWNLEE       Kingston      18/19  W35 - 39      231    16   195   19:25  2:36    17   243 1:11:57  25.0     18   238   49:26  6:52         
  241     2:20:55 Wendy PENTLAND          Kingston       7/10  W50 - 54      478    4    209   20:17  2:43    7    235 1:10:28  25.5     8    242   50:11  6:59         
  242     2:21:32 Nicolette MCGRAW        Kingston      13/15  W45 - 49      460    14   226   21:21  2:51    12   221 1:08:08  26.4     14   251   52:04  7:14         
  243     2:22:22 Mitchell SHERIDAN       Erin           4/5   Junior Men    374    4    256   24:01  3:13    4    210 1:06:44  27.0     4    250   51:38  7:11         
  244     2:22:28 Donna OCONNOR           Kingston       5/6   W55 - 59      271    3    211   20:20  2:43    6    251 1:14:18  24.2     5    225   47:50  6:39         
  245     2:22:56 Heather CASEY           Peterborough  14/15  W45 - 49      447    13   220   20:52  2:47    14   230 1:09:07  26.0     15   252   52:58  7:22         
  246     2:23:04 Katherine BRUCE         Toronto       15/15  W45 - 49      269    11   207   20:10  2:42    15   252 1:15:22  23.9     12   224   47:32  6:36         
  247     2:24:04 Val BEACH               Kingston       8/10  W50 - 54      420    9    259   24:34  3:17    8    241 1:11:34  25.2     6    227   47:56  6:40         
  248 CLY 2:25:16 Sean KELLY              Kingston      17/18  M30 - 34      287    18   252   23:06  3:05    18   244 1:12:00  25.0     17   240   50:11  6:59         
  249     2:28:26 Erika EVERDING          R.R. # 1 Ode   1/2   W70 & Over    437    2    261   26:12  3:30    2    250 1:13:47  24.4     1    229   48:28  6:44         
  250     2:28:40 Patricia SHAW           Burlington     6/6   W55 - 59      219    5    229   21:36  2:53    5    242 1:11:56  25.0     6    257   55:09  7:40         
  251     2:29:59 Jane MCCALDON           Hartington     2/2   W70 & Over    273    1    248   22:51  3:03    1    223 1:08:16  26.4     2    259   58:53  8:11         
  252     2:30:08 Dora MILTON             Kingston       1/1   W60 - 64      358    1    170   18:51  2:31    1    256 1:18:18  23.0     1    253   53:00  7:22         
  253     2:30:38 Billie Jo RADECKE       Williamsvill   9/11  W40 - 44      353    9    249   22:53  3:03    9    257 1:19:14  22.7     9    230   48:33  6:45         
  254     2:30:38 Wellsley RADECKE        Williamsvill   3/4   Junior Women  351    3    247   22:49  3:03    3    258 1:19:15  22.7     2    231   48:34  6:45         
  255     2:30:39 Theresa WALLACE         Ottawa         9/10  W50 - 54      207    7    235   21:44  2:54    9    254 1:15:50  23.7     9    254   53:06  7:23         
  256     2:31:22 Peter VANGESTEL         Erinsville     2/2   M65 - 69      476    2    264   30:22  4:03    2    253 1:15:39  23.8     1    210   45:21  6:18         
  257     2:34:35 Paul MONTANARO          Brockport     24/25  M40 - 44      435    25   266   32:56  4:24    24   255 1:16:49  23.4     22   206   44:51  6:14         
  258 CLY 2:38:14 Rod WHITE               Kingston      15/16  M50 - 54      228    15   262   27:22  3:39    16   259 1:20:42  22.3     14   241   50:11  6:59         
  259     2:38:19 Bill MCLEOD             Slade point   16/16  M50 - 54      251    16   265   31:43  4:14    15   239 1:11:28  25.2     16   256   55:08  7:40         
  260     2:41:41 Lilian LLOYD            Kingston      10/10  W50 - 54      385                                                         10                             
  261     2:46:06 Caitlyn DANARD          Kingston       4/4   Junior Women  462    4    257   24:16  3:15    4    260 1:23:37  21.5     4    258   58:14  8:06         
  262     2:52:23 Shelley SHERIDAN        Erin          10/11  W40 - 44      376    10   254   23:31  3:09    11   263 1:29:32  20.1     10   261   59:21  8:15         
  263     2:59:51 Colleen CLARKE          Kingston      19/19  W35 - 39      464    18   245   22:42  3:02    19   264 1:38:12  18.3     19   260   58:58  8:12         
  264     3:01:33 Ruth GEORGE             Kingston       1/1   W65 - 69      372    1    253   23:23  3:07    1    262 1:27:50  20.5     1    263 1:10:21  9:47         
  265     3:01:33 Lynda MILINA            Ottawa        11/11  W40 - 44      373    11   255   23:45  3:10    10   261 1:27:36  20.5     11   262 1:10:13  9:46         
  266 CLY         Ignacio GARCIA-NICOLETT Briockville   18/18  M30 - 34      235    10   131   17:38  2:21    14   138 1:00:50  29.6                                    
  267 DNF         Andrew SLOT             Kingston       8/8   M25 - 29      386    1      2   10:05  1:21                                                              
  268 DNF         Peter HAMILTON          Ottawa        25/25  M40 - 44      440    1      9   12:01  1:37                                                              
  269 DNF         Justin MURPHY           Perth Road     5/5   Junior Men    288    5    267   40:16  5:23